Time;durP1;ratioP1;P1;durP2;ratioP2;P2;SDS_P1;SDS_P2;PMS_P1;PMS_P2;Temp;Humidity;BMP_temperature;BMP_pressure;BME280_temperature;BME280_humidity;BME280_pressure;Samples;Min_cycle;Max_cycle;Signal;HPM_P1;HPM_P2
2023/06/05 00:00:06;;;;;;;3.27;1.30;;;18.20;41.00;;;;;;4992837;28;20175;-75
2023/06/05 00:02:38;;;;;;;2.90;0.97;;;18.10;41.20;;;;;;4975085;28;20940;-75
2023/06/05 00:05:08;;;;;;;2.83;1.03;;;18.10;41.30;;;;;;4975433;28;20632;-75
2023/06/05 00:07:37;;;;;;;2.63;1.20;;;18.10;41.40;;;;;;4974368;28;20213;-75
2023/06/05 00:10:04;;;;;;;2.27;0.90;;;18.10;41.50;;;;;;4992407;28;20582;-75
2023/06/05 00:12:30;;;;;;;1.80;0.97;;;18.00;41.60;;;;;;4992305;28;20942;-75
2023/06/05 00:14:56;;;;;;;1.70;0.80;;;18.00;41.70;;;;;;4992733;28;20562;-75
2023/06/05 00:17:22;;;;;;;1.80;0.87;;;17.90;41.70;;;;;;4995169;28;20635;-75
2023/06/05 00:19:48;;;;;;;2.77;1.03;;;17.90;41.80;;;;;;4992073;28;20184;-76
2023/06/05 00:22:14;;;;;;;1.90;0.90;;;17.80;41.90;;;;;;4992642;28;20578;-75
2023/06/05 00:24:39;;;;;;;1.97;0.90;;;17.80;42.00;;;;;;4990821;28;20178;-75
2023/06/05 00:27:05;;;;;;;2.60;0.97;;;17.80;42.20;;;;;;4992256;28;20568;-74
2023/06/05 00:29:31;;;;;;;3.50;1.37;;;17.70;42.20;;;;;;4991270;28;20175;-75
2023/06/05 00:31:57;;;;;;;2.80;1.07;;;17.70;42.20;;;;;;4959252;28;20582;-75
2023/06/05 00:34:22;;;;;;;1.93;0.80;;;17.60;42.30;;;;;;4990620;28;20674;-75
2023/06/05 00:36:50;;;;;;;2.60;1.10;;;17.60;42.40;;;;;;4993059;28;20225;-75
2023/06/05 00:39:18;;;;;;;2.00;0.90;;;17.60;42.50;;;;;;4941129;28;1091283;-75
2023/06/05 00:41:45;;;;;;;3.47;1.10;;;17.50;42.60;;;;;;4991748;28;20273;-75
2023/06/05 00:44:12;;;;;;;2.60;1.10;;;17.50;42.70;;;;;;4993411;28;21180;-75
2023/06/05 00:46:39;;;;;;;1.80;1.00;;;17.40;42.80;;;;;;4975440;28;20732;-75
2023/06/05 00:49:06;;;;;;;2.33;1.13;;;17.40;43.00;;;;;;4993275;28;20594;-75
2023/06/05 00:51:31;;;;;;;2.17;1.10;;;17.40;43.20;;;;;;4974778;28;20942;-76
2023/06/05 00:53:57;;;;;;;5.87;1.10;;;17.30;43.20;;;;;;4979611;28;20590;-75
2023/06/05 00:56:23;;;;;;;1.90;0.93;;;17.30;43.40;;;;;;4976172;28;20229;-75
2023/06/05 00:58:50;;;;;;;3.03;1.00;;;17.20;43.50;;;;;;4991754;28;21197;-75
2023/06/05 01:01:16;;;;;;;1.80;1.00;;;17.20;43.60;;;;;;4974719;28;20594;-75
2023/06/05 01:03:44;;;;;;;3.73;1.00;;;17.20;43.70;;;;;;4958431;28;20673;-75
2023/06/05 01:06:11;;;;;;;3.07;1.10;;;17.10;43.80;;;;;;4962749;28;20697;-76
2023/06/05 01:08:41;;;;;;;2.23;1.00;;;17.10;43.90;;;;;;4991195;28;20646;-76
2023/06/05 01:11:28;;;;;;;2.47;1.33;;;17.10;44.10;;;;;;4974964;28;20613;-76
2023/06/05 01:14:16;;;;;;;2.00;1.10;;;17.00;44.60;;;;;;4991435;28;20605;-76
2023/06/05 01:16:44;;;;;;;4.73;1.40;;;17.00;44.60;;;;;;4992490;28;20586;-75
2023/06/05 01:19:14;;;;;;;2.33;1.02;;;17.00;44.30;;;;;;4974695;28;20645;-75
2023/06/05 01:21:40;;;;;;;3.53;1.07;;;16.90;44.50;;;;;;4974575;28;20182;-76
2023/06/05 01:24:06;;;;;;;2.50;1.40;;;16.90;44.50;;;;;;4974545;28;20663;-76
2023/06/05 01:27:04;;;;;;;2.50;1.17;;;16.90;44.60;;;;;;4957416;28;20638;-76
2023/06/05 01:29:52;;;;;;;2.20;1.20;;;16.80;45.30;;;;;;4954726;28;20680;-76
2023/06/05 01:32:29;;;;;;;4.47;1.50;;;16.80;45.20;;;;;;5001486;28;20642;-76
2023/06/05 01:34:58;;;;;;;3.08;1.40;;;16.70;45.10;;;;;;4986471;28;20186;-76
2023/06/05 01:37:26;;;;;;;3.20;1.60;;;16.70;44.90;;;;;;4974635;28;20203;-76
2023/06/05 01:39:55;;;;;;;4.20;1.43;;;16.70;45.10;;;;;;4974488;28;20598;-76
2023/06/05 01:42:23;;;;;;;2.77;1.97;;;16.60;45.20;;;;;;4958138;28;20590;-75
2023/06/05 01:44:49;;;;;;;3.50;1.70;;;16.60;45.30;;;;;;4984999;28;20585;-76
2023/06/05 01:47:16;;;;;;;3.53;1.30;;;16.60;45.50;;;;;;4993673;28;20723;-76
2023/06/05 01:49:43;;;;;;;2.53;1.50;;;16.50;45.50;;;;;;4993862;28;20967;-75
2023/06/05 01:52:09;;;;;;;2.85;1.33;;;16.50;45.60;;;;;;4977252;28;20198;-76
2023/06/05 01:54:34;;;;;;;2.33;1.23;;;16.50;45.70;;;;;;4994218;28;20536;-76
2023/06/05 01:57:00;;;;;;;1.80;1.10;;;16.50;45.90;;;;;;4993692;28;20182;-76
2023/06/05 01:59:26;;;;;;;1.67;0.93;;;16.40;46.00;;;;;;4994098;28;20190;-76
2023/06/05 02:01:52;;;;;;;1.87;1.00;;;16.40;46.10;;;;;;4985492;28;20636;-76
2023/06/05 02:04:18;;;;;;;2.27;1.40;;;16.30;46.10;;;;;;4993698;28;20186;-76
2023/06/05 02:06:45;;;;;;;2.17;1.40;;;16.30;46.30;;;;;;5005730;28;20684;-76
2023/06/05 02:09:12;;;;;;;2.47;1.48;;;16.30;46.40;;;;;;4961537;28;20594;-75
2023/06/05 02:11:39;;;;;;;3.67;1.05;;;16.20;46.40;;;;;;4973952;28;20540;-76
2023/06/05 02:14:12;;;;;;;3.05;1.15;;;16.20;46.50;;;;;;4973804;28;20167;-76
2023/06/05 02:16:39;;;;;;;2.95;0.90;;;16.10;46.70;;;;;;4958067;28;20555;-76
2023/06/05 02:19:06;;;;;;;2.45;1.10;;;16.10;46.80;;;;;;4973855;28;20290;-76
2023/06/05 02:21:32;;;;;;;1.80;1.05;;;16.10;46.90;;;;;;4990078;28;20202;-76
2023/06/05 02:24:02;;;;;;;3.30;1.20;;;16.10;47.10;;;;;;4974201;28;20219;-76
2023/06/05 02:26:28;;;;;;;1.95;1.30;;;16.00;47.40;;;;;;4973814;28;20210;-76
2023/06/05 02:28:56;;;;;;;2.95;1.63;;;16.00;47.10;;;;;;4958055;28;20282;-76
2023/06/05 02:31:24;;;;;;;2.13;1.20;;;16.00;47.20;;;;;;4968075;28;20182;-76
2023/06/05 02:33:55;;;;;;;1.92;1.10;;;15.90;47.40;;;;;;4992679;28;20178;-76
2023/06/05 02:36:23;;;;;;;1.80;1.00;;;15.90;47.70;;;;;;4977656;28;20635;-76
2023/06/05 02:38:49;;;;;;;2.47;1.20;;;15.90;47.70;;;;;;4973890;28;20301;-76
2023/06/05 02:41:19;;;;;;;1.60;0.90;;;15.80;47.80;;;;;;4973426;28;20738;-76
2023/06/05 02:43:45;;;;;;;3.25;1.20;;;15.80;48.10;;;;;;4974741;28;21177;-76
2023/06/05 02:46:11;;;;;;;1.70;0.90;;;15.80;48.00;;;;;;4976822;28;20272;-75
2023/06/05 02:48:38;;;;;;;2.80;1.08;;;15.70;48.30;;;;;;4973846;28;20618;-76
2023/06/05 02:51:06;;;;;;;1.80;0.93;;;15.70;48.10;;;;;;4990001;28;20258;-76
2023/06/05 02:53:32;;;;;;;2.40;1.30;;;15.70;48.80;;;;;;4957480;28;20585;-76
2023/06/05 02:56:01;;;;;;;1.70;1.00;;;15.70;48.70;;;;;;4973962;28;20175;-76
2023/06/05 02:58:28;;;;;;;2.63;1.20;;;15.70;48.60;;;;;;4957411;28;20606;-76
2023/06/05 03:01:01;;;;;;;2.10;1.00;;;15.70;48.80;;;;;;4957589;28;20179;-76
2023/06/05 03:03:33;;;;;;;2.25;1.20;;;15.70;49.00;;;;;;4973341;28;20253;-76
2023/06/05 03:06:04;;;;;;;2.30;1.30;;;15.70;49.20;;;;;;4989964;28;20215;-75
2023/06/05 03:08:36;;;;;;;2.13;1.20;;;15.70;49.20;;;;;;4954226;28;20246;-75
2023/06/05 03:11:04;;;;;;;2.90;1.83;;;15.60;49.90;;;;;;4954157;28;20255;-76
2023/06/05 03:13:32;;;;;;;4.05;1.77;;;15.60;49.60;;;;;;4954321;28;20176;-76
2023/06/05 03:16:00;;;;;;;2.30;1.40;;;15.60;49.80;;;;;;4971431;28;20172;-75
2023/06/05 03:18:30;;;;;;;2.60;1.65;;;15.60;49.90;;;;;;4970589;28;20727;-76
2023/06/05 03:20:59;;;;;;;4.00;2.15;;;15.60;50.10;;;;;;4957733;28;20640;-75
2023/06/05 03:23:29;;;;;;;3.05;1.70;;;15.60;50.20;;;;;;4954539;28;20179;-75
2023/06/05 03:25:57;;;;;;;3.08;1.75;;;15.60;50.20;;;;;;4954823;28;20326;-76
2023/06/05 03:28:24;;;;;;;4.40;2.15;;;15.60;50.50;;;;;;4957657;28;20889;-75
2023/06/05 03:30:53;;;;;;;5.38;3.00;;;15.60;50.60;;;;;;4961932;28;20230;-75
2023/06/05 03:33:22;;;;;;;3.63;2.22;;;15.50;50.70;;;;;;4976987;28;20167;-75
2023/06/05 03:35:52;;;;;;;4.25;2.45;;;15.50;50.70;;;;;;4985788;28;20181;-76
2023/06/05 03:38:18;;;;;;;3.35;1.70;;;15.50;50.90;;;;;;4980116;28;20301;-76
2023/06/05 03:40:45;;;;;;;6.00;2.05;;;15.50;51.00;;;;;;4996337;28;20175;-76
2023/06/05 03:43:13;;;;;;;4.15;1.50;;;15.50;51.30;;;;;;4965444;28;20210;-76
2023/06/05 03:45:40;;;;;;;4.38;1.65;;;15.40;51.30;;;;;;4961096;28;20206;-76
2023/06/05 03:48:06;;;;;;;3.80;1.52;;;15.40;51.50;;;;;;4976572;28;20210;-76
2023/06/05 03:50:41;;;;;;;2.63;1.45;;;15.40;51.70;;;;;;4960618;28;20175;-76
2023/06/05 03:53:07;;;;;;;2.30;1.65;;;15.40;51.90;;;;;;4992718;28;20179;-76
2023/06/05 03:55:45;;;;;;;4.88;1.55;;;15.40;52.00;;;;;;4960911;28;20213;-76
2023/06/05 03:58:19;;;;;;;2.53;1.23;;;15.40;52.20;;;;;;4992380;28;20198;-76
2023/06/05 04:00:51;;;;;;;2.53;1.10;;;15.40;52.40;;;;;;4980185;28;20240;-76
2023/06/05 04:03:19;;;;;;;2.20;1.15;;;15.40;52.60;;;;;;4979738;28;20185;-76
2023/06/05 04:05:44;;;;;;;3.70;2.00;;;15.40;52.80;;;;;;4995974;28;20209;-76
2023/06/05 04:08:11;;;;;;;3.10;1.25;;;15.40;53.10;;;;;;4979997;28;20701;-76
2023/06/05 04:10:37;;;;;;;6.32;1.50;;;15.40;53.20;;;;;;4979086;28;20407;-76
2023/06/05 04:13:04;;;;;;;4.07;1.30;;;15.40;53.30;;;;;;4995909;28;20167;-76
2023/06/05 04:15:33;;;;;;;4.95;1.30;;;15.50;53.80;;;;;;4979408;28;20193;-76
2023/06/05 04:17:59;;;;;;;2.13;1.20;;;15.50;53.90;;;;;;5012320;28;20277;-76
2023/06/05 04:20:25;;;;;;;3.20;1.37;;;15.50;54.10;;;;;;4995362;28;20250;-76
2023/06/05 04:22:51;;;;;;;3.60;1.13;;;15.50;54.30;;;;;;4995823;28;20166;-76
2023/06/05 04:25:17;;;;;;;5.70;1.60;;;15.60;54.80;;;;;;4995601;28;21425;-76
2023/06/05 04:27:48;;;;;;;3.67;1.60;;;15.70;55.70;;;;;;4982955;28;20242;-76
2023/06/05 04:30:14;;;;;;;4.33;1.20;;;16.00;56.00;;;;;;4976111;28;20258;-76
2023/06/05 04:32:41;;;;;;;3.60;1.57;;;16.20;56.30;;;;;;4975727;28;20933;-76
2023/06/05 04:35:09;;;;;;;2.97;1.47;;;16.40;56.60;;;;;;4983027;28;20589;-76
2023/06/05 04:37:36;;;;;;;3.37;1.60;;;16.50;56.60;;;;;;4977676;28;20637;-76
2023/06/05 04:40:07;;;;;;;3.77;2.20;;;16.70;56.90;;;;;;4995463;28;20598;-76
2023/06/05 04:42:33;;;;;;;3.43;1.47;;;16.90;57.10;;;;;;4985445;28;20626;-77
2023/06/05 04:45:07;;;;;;;3.20;1.50;;;17.10;56.90;;;;;;4992417;28;20621;-76
2023/06/05 04:47:36;;;;;;;2.80;1.60;;;17.10;57.10;;;;;;4975344;28;20653;-77
2023/06/05 04:50:04;;;;;;;2.83;1.33;;;17.20;57.00;;;;;;4975843;28;20685;-77
2023/06/05 04:52:39;;;;;;;6.77;1.70;;;17.20;57.00;;;;;;4991576;28;20582;-77
2023/06/05 04:55:06;;;;;;;2.30;1.10;;;17.30;57.60;;;;;;4978547;28;20577;-77
2023/06/05 04:57:32;;;;;;;3.30;1.77;;;17.40;57.90;;;;;;4995129;28;20619;-77
2023/06/05 05:00:04;;;;;;;2.07;1.27;;;17.60;58.40;;;;;;4994650;28;21091;-77
2023/06/05 05:02:30;;;;;;;3.87;1.60;;;17.80;58.60;;;;;;4979096;28;20588;-78
2023/06/05 05:04:56;;;;;;;3.00;1.60;;;18.00;58.70;;;;;;4978594;28;20577;-77
2023/06/05 05:07:24;;;;;;;2.30;1.30;;;18.20;59.30;;;;;;4967572;28;20667;-77
2023/06/05 05:09:50;;;;;;;4.10;1.90;;;18.30;59.10;;;;;;4975002;28;20587;-77
2023/06/05 05:12:16;;;;;;;3.90;2.17;;;18.50;59.30;;;;;;4995358;28;20570;-78
2023/06/05 05:14:44;;;;;;;3.30;1.60;;;18.70;59.50;;;;;;4992865;28;20624;-77
2023/06/05 05:17:10;;;;;;;3.13;1.60;;;18.90;59.60;;;;;;4967788;28;20587;-77
2023/06/05 05:19:40;;;;;;;3.00;1.33;;;19.10;59.70;;;;;;4955997;28;20575;-77
2023/06/05 05:22:07;;;;;;;4.47;2.30;;;19.30;59.30;;;;;;4971596;28;20583;-77
2023/06/05 05:24:32;;;;;;;4.73;1.80;;;19.50;59.40;;;;;;4981993;28;20607;-77
2023/06/05 05:27:00;;;;;;;2.90;1.47;;;19.70;59.40;;;;;;4991650;28;20657;-77
2023/06/05 05:29:27;;;;;;;4.37;1.87;;;19.90;59.90;;;;;;4959128;28;20199;-77
2023/06/05 05:31:53;;;;;;;2.57;1.63;;;20.00;59.00;;;;;;4974788;28;20632;-77
2023/06/05 05:34:20;;;;;;;3.27;1.70;;;20.10;58.90;;;;;;4991128;28;20578;-77
2023/06/05 05:36:46;;;;;;;3.50;1.53;;;20.20;59.00;;;;;;4991700;28;20600;-78
2023/06/05 05:39:12;;;;;;;2.73;1.40;;;20.20;59.00;;;;;;4977700;28;20629;-77
2023/06/05 05:41:37;;;;;;;5.60;2.27;;;20.30;58.90;;;;;;4977385;28;20507;-77
2023/06/05 05:44:03;;;;;;;5.60;1.87;;;20.30;58.80;;;;;;4994155;28;20661;-77
2023/06/05 05:46:29;;;;;;;4.37;1.53;;;20.40;59.00;;;;;;4978134;28;20305;-77
2023/06/05 05:48:55;;;;;;;4.23;1.40;;;20.50;59.70;;;;;;5012442;28;20207;-77
2023/06/05 05:51:21;;;;;;;5.20;2.40;;;20.80;60.40;;;;;;5011529;28;20570;-77
2023/06/05 05:53:46;;;;;;;2.93;1.70;;;21.10;61.30;;;;;;5011331;28;20213;-77
2023/06/05 05:56:12;;;;;;;6.00;1.70;;;21.60;62.40;;;;;;5011799;28;20585;-77
2023/06/05 05:58:38;;;;;;;3.83;1.30;;;22.40;63.60;;;;;;5011859;28;20252;-77
2023/06/05 06:01:04;;;;;;;6.83;1.77;;;23.30;63.70;;;;;;5011012;28;20712;-77
2023/06/05 06:03:29;;;;;;;5.33;1.77;;;24.20;62.70;;;;;;5010483;28;20178;-77
2023/06/05 06:05:57;;;;;;;3.80;1.20;;;25.20;60.70;;;;;;4977524;28;20613;-78
2023/06/05 06:08:22;;;;;;;2.93;1.47;;;26.10;60.00;;;;;;5011422;28;20194;-76
2023/06/05 06:10:48;;;;;;;2.20;1.17;;;27.00;59.20;;;;;;5010761;28;20577;-76
2023/06/05 06:13:14;;;;;;;3.97;1.27;;;27.90;58.00;;;;;;5011503;28;20202;-76
2023/06/05 06:15:40;;;;;;;3.47;1.20;;;28.70;55.80;;;;;;4993550;28;20182;-76
2023/06/05 06:18:06;;;;;;;2.87;1.50;;;29.40;55.50;;;;;;4993807;28;20228;-76
2023/06/05 06:20:33;;;;;;;4.80;1.97;;;30.10;54.10;;;;;;4979012;28;20186;-76
2023/06/05 06:22:59;;;;;;;5.33;1.70;;;30.70;53.20;;;;;;4990063;28;20997;-76
2023/06/05 06:25:28;;;;;;;2.40;1.00;;;31.30;51.90;;;;;;4975913;28;20589;-76
2023/06/05 06:27:55;;;;;;;3.17;1.63;;;31.90;50.90;;;;;;4990869;28;20598;-76
2023/06/05 06:30:21;;;;;;;2.37;1.40;;;32.40;49.40;;;;;;4957796;28;20908;-76
2023/06/05 06:32:47;;;;;;;2.37;1.03;;;32.80;48.70;;;;;;4973511;28;20597;-76
2023/06/05 06:35:13;;;;;;;2.40;1.07;;;33.10;47.60;;;;;;4995480;28;20574;-76
2023/06/05 06:37:41;;;;;;;2.37;1.50;;;33.50;47.10;;;;;;5010699;28;20627;-76
2023/06/05 06:40:10;;;;;;;2.70;1.20;;;33.80;46.30;;;;;;4993190;28;20590;-76
2023/06/05 06:42:36;;;;;;;2.60;1.20;;;34.20;45.60;;;;;;5001417;28;20590;-76
2023/06/05 06:45:19;;;;;;;5.80;1.23;;;34.50;45.00;;;;;;4973827;28;20633;-76
2023/06/05 06:47:45;;;;;;;2.63;1.10;;;34.90;44.60;;;;;;4991457;28;20674;-76
2023/06/05 06:50:10;;;;;;;2.10;1.23;;;35.30;44.10;;;;;;4957408;28;20176;-76
2023/06/05 06:52:36;;;;;;;3.13;1.20;;;35.60;43.60;;;;;;4973982;28;20274;-76
2023/06/05 06:55:03;;;;;;;2.20;1.20;;;36.00;42.30;;;;;;4973740;28;20249;-76
2023/06/05 06:57:28;;;;;;;2.47;1.30;;;36.30;41.90;;;;;;4991571;28;20618;-76
2023/06/05 06:59:54;;;;;;;4.47;1.00;;;36.40;41.10;;;;;;4973411;28;20562;-76
2023/06/05 07:02:23;;;;;;;3.03;1.20;;;36.60;40.50;;;;;;4968909;28;20183;-76
2023/06/05 07:04:49;;;;;;;3.13;1.10;;;36.90;39.70;;;;;;4978122;28;20175;-76
2023/06/05 07:07:17;;;;;;;4.63;1.93;;;37.10;39.20;;;;;;5004588;28;20637;-77
2023/06/05 07:09:44;;;;;;;3.00;1.10;;;37.20;38.50;;;;;;4996588;28;20592;-76
2023/06/05 07:12:11;;;;;;;5.70;1.70;;;37.40;37.90;;;;;;5014232;28;20924;-76
2023/06/05 07:14:38;;;;;;;2.47;1.00;;;37.50;38.00;;;;;;4997293;28;20664;-77
2023/06/05 07:17:03;;;;;;;2.53;1.17;;;37.70;37.30;;;;;;4963819;28;20613;-77
2023/06/05 07:19:31;;;;;;;3.73;1.10;;;37.70;36.80;;;;;;4977541;28;20625;-76
2023/06/05 07:21:58;;;;;;;2.80;1.07;;;37.90;36.70;;;;;;5004249;28;20599;-76
2023/06/05 07:24:25;;;;;;;5.33;1.07;;;38.00;36.40;;;;;;4996952;28;20589;-77
2023/06/05 07:26:55;;;;;;;1.80;1.00;;;38.10;36.20;;;;;;4996647;28;20633;-76
2023/06/05 07:29:24;;;;;;;2.77;1.17;;;38.30;36.00;;;;;;4996510;28;20616;-77
2023/06/05 07:31:51;;;;;;;3.43;1.40;;;38.50;34.30;;;;;;4996663;28;20580;-77
2023/06/05 07:34:21;;;;;;;2.53;1.30;;;38.50;34.30;;;;;;4988945;28;21103;-77
2023/06/05 07:36:49;;;;;;;3.03;1.13;;;38.50;34.20;;;;;;5007807;28;20581;-77
2023/06/05 07:39:15;;;;;;;4.00;1.20;;;38.80;34.00;;;;;;5000427;28;20620;-77
2023/06/05 07:41:41;;;;;;;2.50;1.10;;;38.90;33.70;;;;;;5013480;28;20625;-77
2023/06/05 07:44:11;;;;;;;2.53;0.70;;;39.00;33.70;;;;;;4996082;28;20573;-77
2023/06/05 07:46:40;;;;;;;3.67;1.30;;;39.20;33.40;;;;;;4996607;28;20624;-77
2023/06/05 07:49:06;;;;;;;2.33;1.10;;;39.30;33.10;;;;;;5014178;28;20605;-77
2023/06/05 07:51:35;;;;;;;4.93;2.00;;;39.40;33.00;;;;;;5013187;28;20676;-77
2023/06/05 07:54:09;;;;;;;5.30;1.03;;;39.60;32.80;;;;;;4996427;28;20608;-77
2023/06/05 07:56:35;;;;;;;2.90;1.33;;;39.70;32.70;;;;;;5013636;28;20577;-77
2023/06/05 07:59:02;;;;;;;3.90;1.23;;;39.90;32.90;;;;;;4996227;28;20656;-77
2023/06/05 08:01:31;;;;;;;2.77;1.17;;;40.10;32.40;;;;;;4995430;28;20604;-77
2023/06/05 08:03:57;;;;;;;3.50;1.20;;;40.30;32.20;;;;;;4996218;28;20573;-77
2023/06/05 08:06:24;;;;;;;3.70;0.90;;;40.40;32.10;;;;;;4995412;28;20648;-77
2023/06/05 08:08:50;;;;;;;4.80;1.00;;;40.60;31.70;;;;;;4979926;28;20666;-76
2023/06/05 08:11:16;;;;;;;3.90;1.10;;;40.70;31.40;;;;;;5012980;28;20580;-77
2023/06/05 08:13:42;;;;;;;3.50;1.10;;;40.80;31.20;;;;;;4986010;28;20570;-77
2023/06/05 08:16:08;;;;;;;3.20;1.27;;;40.90;31.30;;;;;;4998049;28;20574;-77
2023/06/05 08:18:34;;;;;;;2.20;1.00;;;41.00;31.10;;;;;;4976183;28;20195;-77
2023/06/05 08:21:00;;;;;;;2.27;1.10;;;41.10;30.80;;;;;;4993824;28;20225;-77
2023/06/05 08:23:26;;;;;;;1.90;1.00;;;41.20;30.50;;;;;;4992306;28;20228;-76
2023/06/05 08:25:53;;;;;;;2.40;1.20;;;41.30;30.50;;;;;;4992610;28;21268;-77
2023/06/05 08:28:19;;;;;;;3.27;1.00;;;41.30;30.20;;;;;;4993129;28;20269;-77
2023/06/05 08:30:45;;;;;;;3.03;1.00;;;41.50;30.00;;;;;;4993749;28;20929;-77
2023/06/05 08:33:11;;;;;;;3.80;1.20;;;41.50;29.80;;;;;;4993553;28;20574;-77
2023/06/05 08:35:40;;;;;;;2.47;1.33;;;41.50;29.60;;;;;;5000401;28;20254;-77
2023/06/05 08:38:06;;;;;;;3.67;1.37;;;41.50;29.30;;;;;;4995473;28;21103;-77
2023/06/05 08:40:33;;;;;;;2.30;0.90;;;41.40;29.30;;;;;;4995055;28;20665;-77
2023/06/05 08:43:03;;;;;;;3.57;1.20;;;41.40;29.40;;;;;;5012783;28;20597;-77
2023/06/05 08:45:30;;;;;;;3.67;1.40;;;41.50;29.30;;;;;;4995212;28;20643;-77
2023/06/05 08:47:59;;;;;;;4.73;0.80;;;41.60;29.40;;;;;;4995651;28;21098;-77
2023/06/05 08:50:30;;;;;;;2.47;1.20;;;41.70;29.10;;;;;;5012467;28;20577;-78
2023/06/05 08:53:00;;;;;;;2.73;0.90;;;41.70;28.50;;;;;;5017359;28;20585;-77
2023/06/05 08:55:27;;;;;;;2.70;1.00;;;41.70;28.70;;;;;;5013155;28;20996;-77
2023/06/05 08:57:53;;;;;;;1.90;1.00;;;41.70;28.70;;;;;;4994937;28;20620;-77
2023/06/05 09:00:20;;;;;;;3.20;1.00;;;41.80;28.80;;;;;;4995131;28;20585;-78
2023/06/05 09:02:47;;;;;;;3.37;0.90;;;41.90;28.70;;;;;;5012438;28;20936;-77
2023/06/05 09:05:14;;;;;;;3.70;1.87;;;42.00;28.50;;;;;;4995198;28;20588;-78
2023/06/05 09:07:40;;;;;;;2.80;1.00;;;42.00;28.10;;;;;;4980059;28;20657;-78
2023/06/05 09:10:20;;;;;;;2.63;1.03;;;42.00;28.50;;;;;;4987598;28;20625;-78
2023/06/05 09:12:57;;;;;;;3.73;0.90;;;42.00;28.00;;;;;;4992088;28;20590;-77
2023/06/05 09:15:25;;;;;;;2.83;1.30;;;42.10;28.30;;;;;;4976201;28;20574;-77
2023/06/05 09:18:08;;;;;;;3.00;1.00;;;42.10;27.90;;;;;;4975647;28;20791;-77
2023/06/05 09:20:35;;;;;;;2.50;1.07;;;42.10;27.80;;;;;;4975130;28;20637;-77
2023/06/05 09:23:03;;;;;;;4.07;1.17;;;42.00;28.00;;;;;;4974540;28;20609;-77
2023/06/05 09:25:48;;;;;;;1.90;1.00;;;42.10;28.10;;;;;;4974865;28;20681;-77
2023/06/05 09:28:15;;;;;;;1.70;0.90;;;42.30;27.90;;;;;;4979387;28;20618;-77
2023/06/05 09:30:53;;;;;;;2.30;1.10;;;42.30;27.20;;;;;;4990793;28;20640;-77
2023/06/05 09:33:19;;;;;;;2.47;1.30;;;42.40;25.20;;;;;;4992545;28;20579;-78
2023/06/05 09:35:44;;;;;;;2.10;0.97;;;42.40;26.90;;;;;;4966618;28;20590;-77
2023/06/05 09:38:30;;;;;;;4.00;1.00;;;42.50;27.10;;;;;;4994352;28;20213;-78
2023/06/05 09:41:20;;;;;;;4.40;0.80;;;42.60;26.80;;;;;;4993386;28;20178;-76
2023/06/05 09:43:46;;;;;;;1.73;0.90;;;42.60;26.60;;;;;;4994402;28;20581;-75
2023/06/05 09:46:15;;;;;;;3.10;1.10;;;42.60;26.10;;;;;;5011482;28;20620;-75
2023/06/05 09:48:45;;;;;;;3.60;0.93;;;42.80;26.20;;;;;;5012046;28;20600;-76
2023/06/05 09:51:17;;;;;;;2.67;1.20;;;42.80;25.90;;;;;;4993541;28;20574;-75
2023/06/05 09:53:47;;;;;;;1.70;0.73;;;42.90;25.60;;;;;;5011889;28;20573;-76
2023/06/05 09:56:15;;;;;;;1.97;1.00;;;43.00;25.90;;;;;;4994291;28;20584;-76
2023/06/05 09:59:00;;;;;;;2.07;1.10;;;43.10;25.40;;;;;;4977834;28;20604;-77
2023/06/05 10:01:28;;;;;;;1.70;0.80;;;43.10;24.50;;;;;;5011469;28;20584;-78
2023/06/05 10:03:59;;;;;;;3.50;1.00;;;43.10;24.80;;;;;;4991762;28;20577;-78
2023/06/05 10:06:29;;;;;;;3.17;1.07;;;43.00;24.80;;;;;;4999543;28;20633;-75
2023/06/05 10:08:56;;;;;;;3.17;1.17;;;43.00;24.60;;;;;;4958100;28;20614;-77
2023/06/05 10:11:23;;;;;;;1.97;1.10;;;43.00;24.40;;;;;;4974150;28;20566;-77
2023/06/05 10:13:50;;;;;;;2.53;0.97;;;42.90;24.30;;;;;;4991476;28;20574;-77
2023/06/05 10:16:20;;;;;;;3.20;1.10;;;42.80;24.40;;;;;;4958445;28;20618;-77
2023/06/05 10:18:47;;;;;;;1.57;0.80;;;42.80;24.00;;;;;;4990189;28;20610;-77
2023/06/05 10:21:16;;;;;;;5.97;1.77;;;42.80;24.30;;;;;;4990356;28;20677;-76
2023/06/05 10:23:47;;;;;;;2.77;1.10;;;42.70;24.20;;;;;;4991711;28;20571;-76
2023/06/05 10:26:54;;;;;;;2.00;1.10;;;42.80;24.00;;;;;;4991410;28;20625;-76
2023/06/05 10:29:46;;;;;;;1.90;1.10;;;42.70;22.00;;;;;;4957795;28;21228;-76
2023/06/05 10:32:28;;;;;;;2.67;1.00;;;42.50;23.50;;;;;;4991769;28;20918;-77
2023/06/05 10:35:39;;;;;;;1.90;0.80;;;42.20;23.30;;;;;;4990672;28;20624;-76
2023/06/05 10:38:23;;;;;;;5.53;1.53;;;42.20;23.80;;;;;;4977349;28;20672;-76
2023/06/05 10:40:52;;;;;;;2.27;0.90;;;42.20;23.70;;;;;;5000807;28;20993;-77
2023/06/05 10:43:28;;;;;;;1.60;0.80;;;42.20;22.80;;;;;;4976440;28;20607;-76
2023/06/05 10:45:56;;;;;;;1.83;0.90;;;42.10;24.10;;;;;;4991397;28;20625;-76
2023/06/05 10:48:41;;;;;;;1.53;0.90;;;42.00;23.20;;;;;;4974192;28;20617;-76
2023/06/05 10:51:39;;;;;;;2.07;1.00;;;42.00;23.10;;;;;;4991198;28;20648;-76
2023/06/05 10:54:06;;;;;;;1.53;0.87;;;41.90;23.10;;;;;;4990224;28;20971;-76
2023/06/05 10:56:50;;;;;;;3.33;0.90;;;41.70;22.90;;;;;;4957937;28;20567;-77
2023/06/05 10:59:17;;;;;;;2.03;1.00;;;41.40;23.50;;;;;;4991341;28;20605;-77
2023/06/05 11:01:43;;;;;;;2.30;1.00;;;41.30;23.40;;;;;;4971216;28;20613;-77
2023/06/05 11:04:09;;;;;;;1.80;0.90;;;41.10;22.90;;;;;;4973431;28;20582;-76
2023/06/05 11:06:37;;;;;;;2.53;1.10;;;40.90;23.10;;;;;;4973812;28;20971;-76
2023/06/05 11:09:21;;;;;;;2.33;0.80;;;40.80;23.10;;;;;;4973439;28;20598;-76
2023/06/05 11:11:58;;;;;;;2.73;0.90;;;40.60;23.20;;;;;;4973599;28;20621;-77
2023/06/05 11:14:25;;;;;;;2.67;0.80;;;40.60;23.30;;;;;;4973469;28;20613;-77
2023/06/05 11:16:51;;;;;;;4.23;0.97;;;40.40;23.00;;;;;;4992659;28;20673;-76
2023/06/05 11:19:22;;;;;;;1.80;0.90;;;40.30;23.00;;;;;;5000118;28;20638;-76
2023/06/05 11:22:08;;;;;;;1.70;0.87;;;40.20;22.80;;;;;;4975727;28;20179;-76
2023/06/05 11:24:35;;;;;;;3.70;1.30;;;40.00;22.80;;;;;;4957305;28;20590;-77
2023/06/05 11:27:05;;;;;;;1.90;1.10;;;39.70;22.50;;;;;;4973437;28;20971;-76
2023/06/05 11:29:32;;;;;;;2.13;1.17;;;39.30;22.20;;;;;;4957694;28;20618;-76
2023/06/05 11:31:58;;;;;;;1.93;0.90;;;38.90;22.00;;;;;;4990571;28;20673;-76
2023/06/05 11:34:25;;;;;;;2.00;0.90;;;38.50;22.00;;;;;;4990868;28;20594;-76
2023/06/05 11:36:51;;;;;;;1.93;1.17;;;38.20;21.70;;;;;;4990538;28;20605;-76
2023/06/05 11:39:17;;;;;;;2.50;1.10;;;37.70;21.90;;;;;;4992966;28;20672;-76
2023/06/05 11:41:44;;;;;;;1.70;0.90;;;37.30;22.10;;;;;;4989607;28;20221;-76
2023/06/05 11:44:10;;;;;;;1.60;0.80;;;37.00;22.50;;;;;;4973723;28;20262;-76
2023/06/05 11:46:37;;;;;;;2.20;1.10;;;36.90;22.70;;;;;;4973670;28;20733;-76
2023/06/05 11:49:04;;;;;;;2.87;1.10;;;36.80;23.00;;;;;;4976890;28;20199;-76
2023/06/05 11:51:34;;;;;;;3.73;1.00;;;36.70;23.20;;;;;;4976882;28;20582;-76
2023/06/05 11:54:01;;;;;;;2.70;1.00;;;36.60;23.00;;;;;;4995560;28;20570;-76
2023/06/05 11:56:28;;;;;;;1.90;1.10;;;36.50;23.10;;;;;;4979539;28;20644;-76
2023/06/05 11:58:54;;;;;;;1.70;1.13;;;36.50;23.30;;;;;;4993683;28;20614;-76
2023/06/05 12:01:25;;;;;;;2.93;1.20;;;36.50;23.40;;;;;;4976472;28;21028;-76
2023/06/05 12:04:05;;;;;;;3.10;0.90;;;36.30;23.10;;;;;;4976295;28;21235;-76
2023/06/05 12:06:31;;;;;;;2.13;1.00;;;36.10;23.10;;;;;;4976508;28;20640;-76
2023/06/05 12:09:11;;;;;;;1.83;0.70;;;36.10;23.40;;;;;;4993662;28;20717;-76
2023/06/05 12:11:38;;;;;;;1.80;0.77;;;36.10;23.20;;;;;;4976209;28;20647;-76
2023/06/05 12:14:04;;;;;;;2.33;1.00;;;35.90;23.10;;;;;;4994127;28;20574;-75
2023/06/05 12:16:39;;;;;;;3.40;1.00;;;35.70;23.40;;;;;;4976190;28;20589;-76
2023/06/05 12:19:12;;;;;;;3.00;1.17;;;35.60;23.40;;;;;;4994105;28;20716;-77
2023/06/05 12:21:38;;;;;;;4.23;0.90;;;35.60;23.60;;;;;;4993104;28;20574;-77
2023/06/05 12:24:05;;;;;;;1.70;0.80;;;35.60;23.60;;;;;;4993961;28;20943;-76
2023/06/05 12:26:53;;;;;;;4.40;0.77;;;35.50;23.40;;;;;;4975601;28;20629;-77
2023/06/05 12:29:20;;;;;;;1.80;0.83;;;35.50;23.60;;;;;;4992783;28;20613;-77
2023/06/05 12:31:46;;;;;;;1.60;0.80;;;35.50;23.60;;;;;;4982764;28;20728;-77
2023/06/05 12:34:12;;;;;;;1.90;0.90;;;35.40;23.60;;;;;;5001645;28;21198;-77
2023/06/05 12:36:42;;;;;;;1.60;0.90;;;35.30;23.70;;;;;;5008794;28;20221;-77
2023/06/05 12:39:15;;;;;;;2.40;1.13;;;35.20;23.80;;;;;;5013242;28;20624;-76
2023/06/05 12:41:41;;;;;;;5.10;0.90;;;35.10;23.50;;;;;;5012120;28;20580;-76
2023/06/05 12:44:08;;;;;;;1.63;0.73;;;34.90;23.70;;;;;;5012897;28;21253;-76
2023/06/05 12:46:35;;;;;;;3.40;1.00;;;34.70;23.20;;;;;;4995460;28;21205;-76
2023/06/05 12:49:02;;;;;;;2.00;1.00;;;34.40;23.20;;;;;;4994895;28;20653;-76
2023/06/05 12:51:28;;;;;;;2.37;0.90;;;34.10;23.20;;;;;;4994653;28;20587;-76
2023/06/05 12:53:55;;;;;;;3.93;1.10;;;33.70;23.20;;;;;;5001327;28;20689;-76
2023/06/05 12:56:24;;;;;;;3.90;1.10;;;33.40;23.40;;;;;;4975902;28;20686;-75